Newport, Mississippi
Current Conditions -  °F | °C
As of 12:54 PM on Wednesday 26 Nov 2014 (Local Time) from KMEM Reporting Station
Light Rain Light Rain  
Wind Chill: 50°   Ceiling: 8000
Heat Index: 50°   Visibility: 10mi
Dew Point: 30°   Wind: 12mph
Humidity: 46%   Direction: 170°S
Pressure: 29.96"   Gusts: NA
Location:  34.9155°N, 90.1878°W
Report Text: KMEM 261854Z 17010KT 10SM -RA SCT060 BKN080 OVC100 10/M01 A2996 RMK AO2 RAB47 SLP146 P0000 T01001011 $
Loading
Personal Weather Stations






























Interactive Weather Map New forecast layout! Learn more

10-Day Weather Forecast

Advertisements
Track Severe Weather on mobile